Time;durP1;ratioP1;P1;durP2;ratioP2;P2;SDS_P1;SDS_P2;PMS_P1;PMS_P2;Temp;Humidity;BMP_temperature;BMP_pressure;BME280_temperature;BME280_humidity;BME280_pressure;Samples;Min_cycle;Max_cycle;Signal;HPM_P1;HPM_P2
2023/05/15 00:01:05;;;;;;;3.20;0.80;;;;;;;34.78;18.93;100412.25;4854310;29;20057;-73
2023/05/15 00:03:34;;;;;;;2.30;0.93;;;;;;;34.81;18.86;100412.00;4858311;29;20073;-73
2023/05/15 00:06:02;;;;;;;4.93;0.75;;;;;;;34.80;18.89;100414.81;4853195;29;20069;-73
2023/05/15 00:08:31;;;;;;;3.33;0.80;;;;;;;34.80;18.73;100412.13;4855375;29;20122;-74
2023/05/15 00:11:01;;;;;;;2.78;0.73;;;;;;;34.79;19.82;100405.03;4859713;29;20068;-74
2023/05/15 00:13:30;;;;;;;2.40;0.45;;;;;;;34.74;18.41;100409.91;4854975;29;20056;-74
2023/05/15 00:15:59;;;;;;;2.47;0.60;;;;;;;34.64;18.82;100399.03;4859377;29;20136;-73
2023/05/15 00:18:27;;;;;;;0.88;0.50;;;;;;;34.55;18.86;100405.06;4852816;29;20050;-73
2023/05/15 00:20:56;;;;;;;1.48;0.55;;;;;;;34.51;19.56;100404.44;4857189;29;20137;-76
2023/05/15 00:23:25;;;;;;;0.63;0.40;;;;;;;34.55;19.27;100405.94;4854084;29;20045;-74
2023/05/15 00:25:53;;;;;;;3.30;0.63;;;;;;;34.55;18.95;100399.72;4855794;29;20125;-76
2023/05/15 00:28:23;;;;;;;3.05;0.70;;;;;;;34.50;18.31;100396.50;4847097;29;20053;-76
2023/05/15 00:30:52;;;;;;;1.42;0.70;;;;;;;34.49;20.15;100395.66;4855685;29;20209;-74
2023/05/15 00:33:21;;;;;;;1.30;0.57;;;;;;;34.48;19.14;100393.94;4852100;29;20053;-75
2023/05/15 00:35:50;;;;;;;2.78;0.55;;;;;;;34.48;19.06;100391.25;4858501;29;20064;-75
2023/05/15 00:38:19;;;;;;;1.63;0.70;;;;;;;34.47;19.31;100391.38;4858338;29;20935;-75
2023/05/15 00:40:48;;;;;;;2.22;0.50;;;;;;;34.45;18.32;100387.94;4859014;29;20046;-76
2023/05/15 00:43:17;;;;;;;1.98;0.60;;;;;;;34.45;18.02;100385.25;4861907;29;20056;-74
2023/05/15 00:45:48;;;;;;;1.27;0.77;;;;;;;34.44;18.90;100380.88;4853965;29;20511;-76
2023/05/15 00:48:17;;;;;;;2.60;0.70;;;;;;;34.42;20.06;100372.91;4855177;29;20114;-74
2023/05/15 00:50:45;;;;;;;2.20;0.50;;;;;;;34.37;18.16;100375.94;4854508;29;20051;-74
2023/05/15 00:53:14;;;;;;;1.55;0.60;;;;;;;34.31;19.12;100375.56;4857835;29;20058;-75
2023/05/15 00:55:44;;;;;;;3.90;0.65;;;;;;;34.24;19.26;100385.06;4852547;29;20049;-77
2023/05/15 00:58:15;;;;;;;0.90;0.60;;;;;;;34.11;19.56;100379.75;4854536;29;20201;-73
2023/05/15 01:00:45;;;;;;;2.28;0.60;;;;;;;34.09;19.75;100376.31;4853439;29;20124;-72
2023/05/15 01:03:16;;;;;;;1.33;0.70;;;;;;;34.09;18.97;100384.38;4855977;29;20473;-74
2023/05/15 01:05:45;;;;;;;4.22;0.70;;;;;;;34.04;19.23;100375.78;4854132;29;20053;-70
2023/05/15 01:08:21;;;;;;;1.83;0.60;;;;;;;34.01;19.10;100375.03;4854023;29;20057;-72
2023/05/15 01:10:50;;;;;;;2.63;0.65;;;;;;;34.00;19.32;100383.22;4852581;29;20076;-71
2023/05/15 01:13:22;;;;;;;9.75;8.07;;;;;;;34.01;19.32;100385.78;4852772;29;20670;-72
2023/05/15 01:15:51;;;;;;;17.10;11.52;;;;;;;33.96;19.06;100373.69;4848607;29;20053;-71
2023/05/15 01:18:21;;;;;;;2.25;1.00;;;;;;;33.95;19.20;100372.84;4854661;29;20057;-78
2023/05/15 01:21:07;;;;;;;1.33;0.88;;;;;;;33.95;18.74;100369.31;4854769;29;20080;-73
2023/05/15 01:23:55;;;;;;;10.00;8.77;;;;;;;33.91;19.10;100363.28;4854913;29;20083;-76
2023/05/15 01:26:54;;;;;;;1.10;0.90;;;;;;;33.91;19.82;100367.81;4855371;29;20049;-71
2023/05/15 01:29:29;;;;;;;2.45;0.60;;;;;;;33.87;19.42;100372.53;4828081;29;20054;-72
2023/05/15 01:32:02;;;;;;;2.47;0.80;;;;;;;33.85;19.64;100371.78;4857508;29;20050;-74
2023/05/15 01:34:46;;;;;;;0.90;0.80;;;;;;;33.76;19.85;100375.16;4856232;29;20053;-74
2023/05/15 01:37:18;;;;;;;3.10;0.70;;;;;;;33.73;19.77;100370.03;4852233;29;20061;-72
2023/05/15 01:39:50;;;;;;;2.30;0.80;;;;;;;33.65;20.52;100375.97;4859128;29;20743;-72
2023/05/15 01:42:21;;;;;;;1.60;0.60;;;;;;;33.58;19.65;100375.56;4853350;29;20053;-73
2023/05/15 01:44:55;;;;;;;3.17;0.70;;;;;;;33.59;20.43;100379.94;4853327;29;20076;-72
2023/05/15 01:47:32;;;;;;;2.63;0.88;;;;;;;33.50;20.07;100372.53;4849629;29;20523;-72
2023/05/15 01:50:03;;;;;;;2.13;0.68;;;;;;;33.45;19.51;100380.06;4849252;29;20561;-71
2023/05/15 01:52:36;;;;;;;1.13;0.60;;;;;;;33.36;20.49;100378.06;4854466;29;20101;-72
2023/05/15 01:55:08;;;;;;;4.65;0.68;;;;;;;33.32;20.19;100374.72;4854804;29;20058;-72
2023/05/15 01:57:37;;;;;;;2.65;0.80;;;;;;;33.32;20.17;100379.22;4848140;29;20495;-71
2023/05/15 02:00:11;;;;;;;3.85;0.70;;;;;;;33.30;19.65;100378.47;4852591;29;20598;-71
2023/05/15 02:02:40;;;;;;;3.42;0.70;;;;;;;33.28;20.23;100378.56;4852334;29;20809;-71
2023/05/15 02:05:16;;;;;;;1.30;0.65;;;;;;;33.16;20.72;100385.69;4852111;29;20468;-72
2023/05/15 02:07:46;;;;;;;1.83;0.60;;;;;;;33.13;20.35;100385.91;4852827;29;20125;-72
2023/05/15 02:10:16;;;;;;;1.67;0.60;;;;;;;33.12;21.33;100381.53;4855029;29;20065;-71
2023/05/15 02:12:45;;;;;;;4.53;0.60;;;;;;;33.10;21.19;100383.47;4852169;29;20507;-71
2023/05/15 02:15:17;;;;;;;2.85;0.70;;;;;;;33.05;21.02;100388.25;4858305;29;20687;-74
2023/05/15 02:17:50;;;;;;;2.47;0.50;;;;;;;32.99;21.65;100386.00;4857716;29;20049;-72
2023/05/15 02:20:18;;;;;;;3.72;1.20;;;;;;;32.91;20.48;100385.66;4855594;29;20077;-72
2023/05/15 02:22:47;;;;;;;1.33;0.50;;;;;;;32.84;21.18;100393.28;4860130;29;21191;-72
2023/05/15 02:25:16;;;;;;;2.58;0.65;;;;;;;32.76;21.38;100391.13;4858079;29;20554;-70
2023/05/15 02:27:53;;;;;;;1.45;0.60;;;;;;;32.69;20.96;100389.84;4856871;29;20062;-72
2023/05/15 02:30:35;;;;;;;1.08;0.70;;;;;;;32.63;20.45;100392.94;4855631;29;20057;-72
2023/05/15 02:33:17;;;;;;;3.75;0.68;;;;;;;32.60;20.69;100394.97;4858220;29;20140;-72
2023/05/15 02:35:52;;;;;;;2.75;0.52;;;;;;;32.49;20.86;100393.84;4856948;29;20053;-72
2023/05/15 02:38:27;;;;;;;1.60;0.68;;;;;;;32.41;20.88;100392.66;4856454;29;20685;-72
2023/05/15 02:40:57;;;;;;;1.67;0.50;;;;;;;32.29;20.76;100403.22;4858013;29;20064;-72
2023/05/15 02:43:27;;;;;;;1.08;0.50;;;;;;;32.20;20.69;100387.78;4852764;29;20053;-71
2023/05/15 02:45:58;;;;;;;1.90;0.50;;;;;;;32.16;21.79;100396.13;4858181;29;20057;-72
2023/05/15 02:48:27;;;;;;;2.47;0.60;;;;;;;32.05;21.82;100404.88;4857712;29;20105;-73
2023/05/15 02:50:55;;;;;;;0.98;0.60;;;;;;;31.97;22.67;100407.19;4870535;29;20057;-72
2023/05/15 02:53:24;;;;;;;1.27;0.65;;;;;;;31.92;21.61;100407.47;4868077;29;20144;-72
2023/05/15 02:55:53;;;;;;;1.90;0.77;;;;;;;31.88;22.52;100412.13;4868467;29;20049;-71
2023/05/15 02:58:21;;;;;;;1.30;0.40;;;;;;;31.76;22.46;100410.28;4861174;29;20116;-71
2023/05/15 03:00:50;;;;;;;1.08;0.50;;;;;;;31.58;22.85;100408.78;4853565;29;20055;-72
2023/05/15 03:03:20;;;;;;;2.25;0.50;;;;;;;31.47;23.10;100413.00;4861645;29;20064;-71
2023/05/15 03:05:49;;;;;;;1.42;0.57;;;;;;;31.36;22.84;100418.16;4857763;29;20057;-72
2023/05/15 03:08:21;;;;;;;1.38;0.60;;;;;;;31.32;22.84;100421.97;4854095;29;20049;-72
2023/05/15 03:10:49;;;;;;;1.65;0.40;;;;;;;31.21;23.99;100429.78;4855281;29;20064;-71
2023/05/15 03:13:18;;;;;;;3.13;0.50;;;;;;;31.08;23.70;100425.22;4862430;29;20052;-73
2023/05/15 03:15:46;;;;;;;0.95;0.60;;;;;;;30.99;23.02;100428.41;4857417;29;20050;-72
2023/05/15 03:18:15;;;;;;;2.13;0.40;;;;;;;30.93;23.08;100431.47;4855666;29;20049;-72
2023/05/15 03:20:45;;;;;;;1.35;0.45;;;;;;;30.87;22.78;100431.84;4856917;29;20097;-72
2023/05/15 03:23:14;;;;;;;2.22;0.60;;;;;;;30.82;22.26;100433.91;4863415;29;20112;-72
2023/05/15 03:25:42;;;;;;;2.05;0.80;;;;;;;30.77;23.05;100436.00;4857924;29;20511;-71
2023/05/15 03:28:11;;;;;;;1.15;0.55;;;;;;;30.67;22.31;100439.22;4854391;29;20054;-70
2023/05/15 03:30:39;;;;;;;0.85;0.40;;;;;;;30.59;22.92;100438.81;4866313;29;20707;-72
2023/05/15 03:33:08;;;;;;;3.17;0.60;;;;;;;30.50;22.29;100442.03;4850316;29;20587;-72
2023/05/15 03:35:36;;;;;;;1.75;0.57;;;;;;;30.46;22.70;100437.81;4856050;29;20385;-73
2023/05/15 03:38:07;;;;;;;2.28;0.52;;;;;;;30.44;22.38;100445.03;4860881;29;20149;-72
2023/05/15 03:40:35;;;;;;;0.77;0.60;;;;;;;30.39;23.05;100449.78;4863162;29;20109;-72
2023/05/15 03:43:04;;;;;;;1.67;0.63;;;;;;;30.32;22.66;100443.09;4869304;29;20430;-73
2023/05/15 03:45:34;;;;;;;1.02;0.50;;;;;;;30.27;22.56;100454.03;4865511;29;20056;-72
2023/05/15 03:48:02;;;;;;;2.20;0.50;;;;;;;30.22;22.89;100450.75;4856019;29;20083;-73
2023/05/15 03:50:31;;;;;;;2.22;0.52;;;;;;;30.16;22.56;100457.28;4855242;29;20064;-73
2023/05/15 03:53:00;;;;;;;1.90;0.50;;;;;;;30.10;22.83;100462.97;4853588;29;20046;-73
2023/05/15 03:55:30;;;;;;;1.23;0.50;;;;;;;30.03;23.20;100461.56;4855350;29;20073;-73
2023/05/15 03:57:59;;;;;;;1.15;0.40;;;;;;;29.99;23.40;100470.72;4851548;29;20045;-71
2023/05/15 04:00:27;;;;;;;0.80;0.50;;;;;;;29.93;23.52;100465.72;4855376;29;20053;-73
2023/05/15 04:02:56;;;;;;;1.88;0.60;;;;;;;29.86;23.79;100475.88;4856293;29;20113;-74
2023/05/15 04:05:31;;;;;;;0.50;0.40;;;;;;;29.80;23.73;100466.41;4852298;29;20145;-75
2023/05/15 04:07:59;;;;;;;1.45;0.45;;;;;;;29.72;23.43;100481.97;4858217;29;20478;-72
2023/05/15 04:10:31;;;;;;;2.42;0.98;;;;;;;29.64;23.49;100477.03;4854048;29;20621;-72
2023/05/15 04:12:59;;;;;;;1.45;0.50;;;;;;;29.58;24.41;100473.84;4854168;29;20125;-73
2023/05/15 04:15:28;;;;;;;1.42;0.50;;;;;;;29.53;24.07;100483.91;4856586;29;20563;-75
2023/05/15 04:17:58;;;;;;;1.85;0.50;;;;;;;29.47;23.66;100484.22;4858764;29;20067;-74
2023/05/15 04:20:27;;;;;;;0.70;0.50;;;;;;;29.39;24.52;100484.59;4855114;29;20050;-77
2023/05/15 04:22:55;;;;;;;0.40;0.30;;;;;;;29.31;24.48;100490.34;4855326;29;20053;-75
2023/05/15 04:25:27;;;;;;;1.20;0.55;;;;;;;29.24;24.13;100489.81;4855550;29;20061;-74
2023/05/15 04:27:57;;;;;;;2.58;0.60;;;;;;;29.18;24.76;100483.94;4854323;29;20168;-75
2023/05/15 04:30:25;;;;;;;2.05;0.40;;;;;;;29.12;25.90;100490.47;4854664;29;20049;-75
2023/05/15 04:32:54;;;;;;;1.08;0.52;;;;;;;29.04;26.29;100498.81;4851422;29;20045;-75
2023/05/15 04:35:23;;;;;;;1.65;0.63;;;;;;;28.91;26.88;100487.09;4855513;29;20068;-74
2023/05/15 04:37:51;;;;;;;4.22;0.80;;;;;;;28.89;27.19;100501.41;4859391;29;20116;-76
2023/05/15 04:40:23;;;;;;;1.65;0.55;;;;;;;28.79;27.38;100495.69;4852998;29;20587;-76
2023/05/15 04:42:51;;;;;;;1.08;0.63;;;;;;;28.70;27.83;100504.13;4853008;29;20065;-78
2023/05/15 04:45:23;;;;;;;1.27;0.70;;;;;;;28.59;27.50;100502.88;4855491;29;20084;-77
2023/05/15 04:47:51;;;;;;;1.38;0.80;;;;;;;28.48;27.15;100510.53;4859610;29;20057;-79
2023/05/15 04:50:20;;;;;;;0.63;0.50;;;;;;;28.38;27.14;100514.53;4860825;29;20109;-78
2023/05/15 04:52:48;;;;;;;0.88;0.50;;;;;;;28.29;27.63;100515.84;4856890;29;20118;-77
2023/05/15 04:55:17;;;;;;;1.52;0.57;;;;;;;28.22;27.95;100514.41;4856207;29;20057;-77
2023/05/15 04:57:47;;;;;;;2.65;0.85;;;;;;;28.12;28.35;100519.28;4856852;29;20066;-78
2023/05/15 05:00:17;;;;;;;2.95;1.60;;;;;;;28.04;28.76;100529.44;4857764;29;20140;-77
2023/05/15 05:02:47;;;;;;;5.97;1.67;;;;;;;27.95;29.08;100521.91;4855261;29;20054;-77
2023/05/15 05:05:15;;;;;;;4.53;1.33;;;;;;;27.85;29.30;100531.22;4854193;29;20061;-77
2023/05/15 05:07:45;;;;;;;3.28;0.98;;;;;;;27.75;29.15;100528.97;4853147;29;20049;-77
2023/05/15 05:10:13;;;;;;;2.45;0.80;;;;;;;27.60;29.44;100513.69;4857230;29;20502;-76
2023/05/15 05:12:42;;;;;;;2.45;0.93;;;;;;;27.58;30.12;100523.56;4855900;29;20140;-76
2023/05/15 05:15:12;;;;;;;2.38;0.90;;;;;;;27.50;30.22;100520.38;4841475;29;20053;-77
2023/05/15 05:17:41;;;;;;;2.92;0.80;;;;;;;27.42;30.31;100530.47;4856855;29;20054;-77
2023/05/15 05:20:13;;;;;;;2.85;1.20;;;;;;;27.34;31.34;100528.16;4852568;29;20054;-76
2023/05/15 05:22:41;;;;;;;1.92;0.82;;;;;;;27.25;31.91;100525.91;4858819;29;20116;-75
2023/05/15 05:25:10;;;;;;;1.63;0.60;;;;;;;27.16;32.17;100527.13;4857193;29;20057;-75
2023/05/15 05:27:39;;;;;;;2.05;0.70;;;;;;;27.07;32.33;100512.44;4856784;29;20492;-76
2023/05/15 05:30:09;;;;;;;1.02;0.60;;;;;;;26.99;31.18;100519.88;4856389;29;20045;-76
2023/05/15 05:32:37;;;;;;;4.25;0.80;;;;;;;26.91;30.97;100520.19;4856099;29;20049;-75
2023/05/15 05:35:06;;;;;;;2.42;0.75;;;;;;;26.84;31.22;100512.56;4854271;29;20264;-75
2023/05/15 05:37:37;;;;;;;1.15;0.60;;;;;;;26.77;31.23;100517.25;4852640;29;20049;-76
2023/05/15 05:40:07;;;;;;;1.77;0.73;;;;;;;26.63;31.65;100503.72;4852943;29;20081;-74
2023/05/15 05:42:36;;;;;;;2.30;0.77;;;;;;;26.60;32.28;100512.66;4860500;29;20140;-76
2023/05/15 05:45:05;;;;;;;2.58;0.70;;;;;;;26.52;30.76;100512.06;4853080;29;20045;-77
2023/05/15 05:47:33;;;;;;;1.38;0.70;;;;;;;26.46;31.22;100518.50;4850396;29;20072;-78
2023/05/15 05:50:02;;;;;;;3.85;0.80;;;;;;;26.42;30.68;100524.00;4857639;29;20054;-77
2023/05/15 05:52:30;;;;;;;1.35;0.50;;;;;;;26.35;30.46;100523.38;4855187;29;20049;-78
2023/05/15 05:55:00;;;;;;;1.90;0.60;;;;;;;26.30;30.65;100525.34;4861050;29;20049;-77
2023/05/15 05:57:29;;;;;;;0.98;0.60;;;;;;;26.24;30.23;100525.56;4860834;29;20086;-78
2023/05/15 05:59:58;;;;;;;1.25;0.47;;;;;;;26.20;30.69;100523.97;4855306;29;20052;-76
2023/05/15 06:02:27;;;;;;;2.75;0.60;;;;;;;26.17;29.92;100519.66;4856485;29;20060;-76
2023/05/15 06:04:56;;;;;;;0.60;0.50;;;;;;;26.11;29.48;100520.75;4855554;29;20049;-76
2023/05/15 06:07:24;;;;;;;2.25;0.60;;;;;;;26.08;30.17;100512.91;4857131;29;20053;-76
2023/05/15 06:09:53;;;;;;;1.15;0.60;;;;;;;26.02;31.23;100509.63;4853852;29;20535;-77
2023/05/15 06:12:23;;;;;;;0.85;0.45;;;;;;;26.01;31.37;100516.72;4849133;29;20053;-78
2023/05/15 06:14:52;;;;;;;0.77;0.50;;;;;;;25.97;31.11;100531.00;4854036;29;20082;-78
2023/05/15 06:17:20;;;;;;;1.35;0.63;;;;;;;25.94;31.12;100524.97;4854706;29;20045;-77
2023/05/15 06:19:49;;;;;;;1.08;0.70;;;;;;;25.90;30.61;100514.47;4856709;29;20136;-78
2023/05/15 06:22:27;;;;;;;0.85;0.57;;;;;;;25.88;31.05;100519.00;4856004;29;20109;-77
2023/05/15 06:24:55;;;;;;;1.63;0.70;;;;;;;25.88;31.22;100520.75;4847625;29;20053;-76
2023/05/15 06:27:28;;;;;;;1.45;0.60;;;;;;;25.86;30.41;100525.22;4854767;29;20057;-76
2023/05/15 06:29:56;;;;;;;0.70;0.60;;;;;;;25.82;30.01;100527.13;4853115;29;20045;-76
2023/05/15 06:32:25;;;;;;;3.58;0.63;;;;;;;25.78;30.62;100514.91;4861281;29;20504;-76
2023/05/15 06:34:53;;;;;;;2.08;0.63;;;;;;;25.75;30.33;100523.00;4854476;29;20053;-76
2023/05/15 06:37:22;;;;;;;1.90;0.60;;;;;;;25.70;30.08;100516.97;4856166;29;20049;-75
2023/05/15 06:39:50;;;;;;;4.13;1.02;;;;;;;25.66;30.44;100518.88;4857858;29;20458;-77
2023/05/15 06:42:19;;;;;;;3.67;0.50;;;;;;;25.63;30.55;100519.00;4857396;29;20061;-77
2023/05/15 06:44:50;;;;;;;3.28;0.70;;;;;;;25.61;30.24;100515.56;4853845;29;20050;-77
2023/05/15 06:47:18;;;;;;;2.50;0.50;;;;;;;25.57;30.25;100524.53;4854228;29;20152;-77
2023/05/15 06:49:47;;;;;;;0.95;0.50;;;;;;;25.53;30.23;100525.53;4857598;29;20050;-74
2023/05/15 06:52:15;;;;;;;1.77;0.55;;;;;;;25.49;30.20;100518.63;4856283;29;20046;-77
2023/05/15 06:54:44;;;;;;;1.30;0.63;;;;;;;25.48;30.64;100527.50;4861499;29;20526;-77
2023/05/15 06:57:12;;;;;;;2.03;0.50;;;;;;;25.43;30.13;100526.81;4860740;29;20546;-76
2023/05/15 06:59:41;;;;;;;1.25;0.70;;;;;;;25.44;29.55;100528.53;4860756;29;20054;-77
2023/05/15 07:02:11;;;;;;;1.20;0.60;;;;;;;25.42;29.53;100535.66;4859095;29;20050;-76
2023/05/15 07:04:46;;;;;;;1.58;0.68;;;;;;;25.42;30.04;100535.66;4863714;29;20170;-74
2023/05/15 07:07:21;;;;;;;1.27;0.70;;;;;;;25.40;29.65;100537.50;4862095;29;20049;-74
2023/05/15 07:09:50;;;;;;;0.75;0.40;;;;;;;25.40;30.25;100532.19;4867786;29;20071;-75
2023/05/15 07:12:18;;;;;;;1.00;0.60;;;;;;;25.39;30.22;100535.78;4859703;29;20801;-74
2023/05/15 07:14:47;;;;;;;0.95;0.70;;;;;;;25.38;29.65;100528.75;4857057;29;20058;-77
2023/05/15 07:17:18;;;;;;;1.75;0.65;;;;;;;25.38;29.97;100534.94;4856770;29;20768;-75
2023/05/15 07:19:46;;;;;;;1.10;0.50;;;;;;;25.37;29.36;100535.81;4852805;29;20089;-73
2023/05/15 07:22:15;;;;;;;1.75;0.52;;;;;;;25.36;29.95;100536.75;4860280;29;20064;-73
2023/05/15 07:24:43;;;;;;;1.63;0.50;;;;;;;25.34;29.56;100537.72;4859285;29;20057;-74
2023/05/15 07:27:12;;;;;;;2.00;0.73;;;;;;;25.34;29.65;100532.44;4857604;29;20133;-74
2023/05/15 07:29:40;;;;;;;2.97;0.52;;;;;;;25.32;29.76;100526.31;4858595;29;20073;-75
2023/05/15 07:32:09;;;;;;;1.25;0.60;;;;;;;25.33;29.99;100533.34;4859996;29;20597;-76
2023/05/15 07:34:41;;;;;;;1.65;0.70;;;;;;;25.31;29.97;100532.53;4857039;29;20066;-75
2023/05/15 07:37:09;;;;;;;1.15;0.52;;;;;;;25.30;30.01;100526.38;4857240;29;20911;-76
2023/05/15 07:39:38;;;;;;;1.48;0.60;;;;;;;25.29;30.23;100535.25;4854484;29;20061;-76
2023/05/15 07:42:07;;;;;;;1.50;0.52;;;;;;;25.27;30.59;100532.66;4855409;29;20057;-75
2023/05/15 07:44:35;;;;;;;1.08;0.70;;;;;;;25.25;29.77;100534.47;4851380;29;20515;-76
2023/05/15 07:47:04;;;;;;;2.67;0.60;;;;;;;25.23;30.21;100533.66;4865615;29;20380;-74
2023/05/15 07:49:32;;;;;;;1.00;0.70;;;;;;;25.21;29.94;100532.84;4850561;29;20049;-73
2023/05/15 07:52:02;;;;;;;1.73;0.63;;;;;;;25.19;29.95;100529.38;4858631;29;20046;-73
2023/05/15 07:54:31;;;;;;;0.73;0.50;;;;;;;25.17;31.03;100536.47;4868435;29;20499;-75
2023/05/15 07:57:00;;;;;;;1.42;0.70;;;;;;;25.18;30.59;100527.66;4858665;29;20181;-76
2023/05/15 07:59:29;;;;;;;2.38;0.70;;;;;;;25.15;30.47;100533.06;4861424;29;20053;-75
2023/05/15 08:01:58;;;;;;;2.88;0.85;;;;;;;25.13;31.11;100528.69;4857887;29;20081;-73
2023/05/15 08:04:26;;;;;;;1.85;0.50;;;;;;;25.11;30.55;100526.13;4866356;29;20073;-77
2023/05/15 08:06:55;;;;;;;1.27;0.50;;;;;;;25.09;31.02;100527.94;4855217;29;20053;-75
2023/05/15 08:09:25;;;;;;;1.27;0.73;;;;;;;25.06;30.96;100526.28;4846696;29;20141;-76
2023/05/15 08:11:57;;;;;;;1.40;0.73;;;;;;;25.03;31.48;100517.56;4858421;29;20493;-76
2023/05/15 08:14:26;;;;;;;0.88;0.63;;;;;;;24.99;31.22;100518.59;4851282;29;20137;-74
2023/05/15 08:16:54;;;;;;;2.97;0.80;;;;;;;24.95;31.36;100519.63;4853943;29;20576;-73
2023/05/15 08:19:23;;;;;;;2.00;0.68;;;;;;;24.91;31.00;100523.28;4854932;29;20050;-74
2023/05/15 08:21:53;;;;;;;1.73;0.88;;;;;;;24.80;31.38;100505.97;4857466;29;20105;-74
2023/05/15 08:24:21;;;;;;;1.70;0.50;;;;;;;24.84;31.23;100515.53;4860450;29;20591;-75
2023/05/15 08:26:51;;;;;;;1.15;0.55;;;;;;;24.82;31.71;100516.50;4858788;29;20128;-75
2023/05/15 08:29:20;;;;;;;1.80;0.60;;;;;;;24.78;31.96;100512.22;4857721;29;20049;-76
2023/05/15 08:31:48;;;;;;;1.92;0.65;;;;;;;24.74;32.35;100516.78;4857744;29;20066;-77
2023/05/15 08:34:17;;;;;;;2.05;0.80;;;;;;;24.71;32.55;100516.00;4857569;29;20061;-77
2023/05/15 08:36:45;;;;;;;1.85;0.80;;;;;;;24.67;33.45;100507.31;4855928;29;20057;-76
2023/05/15 08:39:14;;;;;;;1.65;0.90;;;;;;;24.63;32.25;100508.31;4856535;29;20116;-77
2023/05/15 08:41:52;;;;;;;1.98;1.10;;;;;;;24.57;33.55;100508.53;4852656;29;20125;-77
2023/05/15 08:44:22;;;;;;;1.20;0.70;;;;;;;24.51;32.92;100501.66;4854032;29;20117;-76
2023/05/15 08:46:50;;;;;;;1.23;0.70;;;;;;;24.48;32.52;100503.53;4856351;29;20175;-77
2023/05/15 08:49:27;;;;;;;0.80;0.60;;;;;;;24.43;32.58;100496.56;4853453;29;20126;-76
2023/05/15 08:51:56;;;;;;;1.73;0.70;;;;;;;24.41;32.99;100503.69;4853638;29;20052;-75
2023/05/15 08:54:26;;;;;;;3.65;0.60;;;;;;;24.38;33.11;100513.50;4855188;29;20065;-75
2023/05/15 08:56:56;;;;;;;1.48;0.50;;;;;;;24.35;32.82;100508.28;4857469;29;20514;-76
2023/05/15 08:59:25;;;;;;;1.35;0.80;;;;;;;24.32;32.45;100506.63;4852819;29;20515;-76
2023/05/15 09:01:54;;;;;;;1.73;0.57;;;;;;;24.30;32.54;100511.09;4856760;29;20053;-76
2023/05/15 09:04:23;;;;;;;1.35;0.70;;;;;;;24.28;32.98;100505.00;4856398;29;20064;-76
2023/05/15 09:06:52;;;;;;;1.13;0.60;;;;;;;24.25;32.78;100498.00;4854745;29;20105;-75
2023/05/15 09:09:22;;;;;;;1.23;0.60;;;;;;;24.27;33.69;100505.91;4854536;29;20512;-76
2023/05/15 09:11:51;;;;;;;1.88;0.55;;;;;;;24.25;33.39;100502.44;4852433;29;20084;-76
2023/05/15 09:14:21;;;;;;;0.90;0.70;;;;;;;24.24;32.58;100501.56;4852115;29;20117;-73
2023/05/15 09:16:52;;;;;;;2.38;0.70;;;;;;;24.24;33.26;100495.44;4857054;29;20110;-75
2023/05/15 09:19:21;;;;;;;1.92;0.80;;;;;;;24.23;32.88;100488.41;4858496;29;20665;-76
2023/05/15 09:21:50;;;;;;;1.38;0.80;;;;;;;24.22;32.82;100491.97;4852260;29;20049;-74
2023/05/15 09:24:21;;;;;;;2.22;0.70;;;;;;;24.20;32.71;100483.22;4853497;29;20057;-74
2023/05/15 09:27:03;;;;;;;1.08;0.70;;;;;;;24.18;33.20;100485.91;4856921;29;20053;-75
2023/05/15 09:29:34;;;;;;;1.80;0.70;;;;;;;24.17;33.15;100478.91;4852955;29;20085;-75
2023/05/15 09:32:07;;;;;;;2.20;0.83;;;;;;;24.16;32.75;100477.16;4863047;29;20372;-76
2023/05/15 09:34:37;;;;;;;0.88;0.63;;;;;;;24.17;32.84;100478.03;4854349;29;20133;-76
2023/05/15 09:37:07;;;;;;;1.63;0.77;;;;;;;24.15;32.77;100472.78;4855159;29;20078;-75
2023/05/15 09:39:42;;;;;;;1.80;0.75;;;;;;;24.14;33.42;100473.69;4850492;29;20495;-76
2023/05/15 09:42:12;;;;;;;1.40;0.70;;;;;;;24.09;32.87;100469.47;4856576;29;20495;-75
2023/05/15 09:44:45;;;;;;;2.55;0.73;;;;;;;24.14;33.67;100473.69;4850457;29;20109;-75
2023/05/15 09:47:15;;;;;;;2.45;0.70;;;;;;;24.13;34.19;100477.25;4851859;29;20147;-74
2023/05/15 09:49:46;;;;;;;2.58;0.73;;;;;;;24.12;33.41;100474.66;4868977;29;20113;-74
2023/05/15 09:52:17;;;;;;;0.85;0.68;;;;;;;24.07;33.89;100469.50;4861262;29;20113;-76
2023/05/15 09:54:47;;;;;;;1.70;0.80;;;;;;;24.08;34.22;100473.03;4867101;29;20050;-73
2023/05/15 09:57:16;;;;;;;1.15;0.65;;;;;;;24.06;34.01;100483.66;4869199;29;20257;-74
2023/05/15 09:59:48;;;;;;;1.55;0.77;;;;;;;23.96;34.50;100472.50;4858628;29;20075;-75
2023/05/15 10:02:26;;;;;;;2.63;0.73;;;;;;;23.98;34.29;100481.25;4857427;29;20066;-74
2023/05/15 10:04:59;;;;;;;2.38;0.60;;;;;;;23.94;33.99;100479.59;4859037;29;20061;-74
2023/05/15 10:07:31;;;;;;;1.23;0.70;;;;;;;23.92;34.80;100483.19;4853188;29;20058;-75
2023/05/15 10:10:01;;;;;;;1.63;0.60;;;;;;;23.89;35.49;100492.09;4853366;29;20053;-75
2023/05/15 10:12:30;;;;;;;2.55;0.70;;;;;;;23.85;35.54;100495.72;4857554;29;20515;-75
2023/05/15 10:15:02;;;;;;;0.85;0.52;;;;;;;23.81;35.93;100489.66;4858394;29;20109;-75
2023/05/15 10:17:35;;;;;;;1.55;0.52;;;;;;;23.76;35.61;100485.44;4857097;29;20144;-77
2023/05/15 10:20:06;;;;;;;1.98;0.63;;;;;;;23.73;34.80;100483.72;4849419;29;20105;-74
2023/05/15 10:22:39;;;;;;;1.80;0.80;;;;;;;23.71;35.25;100482.00;4856611;29;20060;-76
2023/05/15 10:25:14;;;;;;;1.40;0.60;;;;;;;23.66;35.57;100500.63;4858342;29;20045;-74
2023/05/15 10:27:43;;;;;;;0.88;0.50;;;;;;;23.63;34.74;100492.81;4855234;29;20054;-74
2023/05/15 10:30:15;;;;;;;1.48;0.60;;;;;;;23.54;35.41;100483.38;4859336;29;20049;-75
2023/05/15 10:32:45;;;;;;;0.70;0.60;;;;;;;23.56;35.00;100486.81;4860947;29;20456;-73
2023/05/15 10:35:14;;;;;;;3.53;0.70;;;;;;;23.55;35.09;100500.97;4852462;29;20056;-74
2023/05/15 10:37:43;;;;;;;0.85;0.65;;;;;;;23.51;35.22;100491.38;4858523;29;20081;-75
2023/05/15 10:40:13;;;;;;;2.95;0.70;;;;;;;23.50;35.33;100492.31;4859794;29;20492;-75
2023/05/15 10:42:44;;;;;;;0.80;0.60;;;;;;;23.49;34.87;100487.06;4856596;29;20062;-74
2023/05/15 10:45:14;;;;;;;1.25;0.47;;;;;;;23.49;35.08;100485.28;4854901;29;20061;-77
2023/05/15 10:47:45;;;;;;;1.48;0.75;;;;;;;23.50;35.03;100501.97;4857250;29;20113;-75
2023/05/15 10:50:14;;;;;;;2.30;0.50;;;;;;;23.49;35.95;100506.41;4860853;29;20054;-75
2023/05/15 10:52:43;;;;;;;1.65;0.70;;;;;;;23.46;36.09;100506.50;4850309;29;20130;-74
2023/05/15 10:55:17;;;;;;;0.57;0.50;;;;;;;23.43;36.22;100522.41;4844933;29;20061;-75
2023/05/15 10:57:47;;;;;;;1.70;1.00;;;;;;;23.41;35.90;100524.25;4860080;29;20046;-75
2023/05/15 11:00:31;;;;;;;1.48;0.52;;;;;;;23.33;35.99;100520.94;4862215;29;20045;-75
2023/05/15 11:03:01;;;;;;;0.75;0.50;;;;;;;23.30;36.62;100531.59;4860749;29;20067;-77
2023/05/15 11:05:30;;;;;;;3.38;0.70;;;;;;;23.28;37.13;100533.41;4863011;29;20062;-77
2023/05/15 11:08:26;;;;;;;1.00;0.55;;;;;;;23.27;36.65;100535.16;4858360;29;20132;-76
2023/05/15 11:10:55;;;;;;;1.95;0.60;;;;;;;23.26;36.33;100527.28;4861138;29;20384;-76
2023/05/15 11:13:23;;;;;;;2.08;0.65;;;;;;;23.23;36.17;100525.59;4850512;29;20472;-75
2023/05/15 11:15:56;;;;;;;2.00;0.60;;;;;;;23.23;36.27;100514.16;4870561;29;20053;-75
2023/05/15 11:18:24;;;;;;;0.90;0.50;;;;;;;23.23;36.25;100514.16;4850335;29;20115;-76
2023/05/15 11:21:09;;;;;;;3.38;0.93;;;;;;;23.20;36.19;100512.47;4848057;29;20127;-76
2023/05/15 11:23:42;;;;;;;1.40;1.00;;;;;;;23.19;37.27;100503.69;4858435;29;20053;-75
2023/05/15 11:26:13;;;;;;;1.42;0.60;;;;;;;23.14;37.00;100505.59;4856976;29;20132;-75
2023/05/15 11:28:46;;;;;;;1.05;0.70;;;;;;;23.14;37.15;100508.22;4858189;29;20453;-76
2023/05/15 11:31:16;;;;;;;1.02;0.60;;;;;;;23.14;36.83;100499.47;4857877;29;20049;-73
2023/05/15 11:33:44;;;;;;;0.88;0.52;;;;;;;23.13;36.72;100503.84;4857700;29;20054;-76
2023/05/15 11:36:15;;;;;;;2.03;0.70;;;;;;;23.13;36.95;100506.47;4859048;29;20470;-74
2023/05/15 11:38:44;;;;;;;1.85;0.50;;;;;;;23.13;37.30;100511.75;4860073;29;20132;-73